createdAt,value
2023-05-23T00:01:26.648Z,56.10
2023-05-23T00:04:02.004Z,56.28
2023-05-23T00:06:36.364Z,55.66
2023-05-23T00:09:09.095Z,56.12
2023-05-23T00:11:45.115Z,56.40
2023-05-23T00:14:17.861Z,56.31
2023-05-23T00:16:49.643Z,56.48
2023-05-23T00:19:21.987Z,56.29
2023-05-23T00:21:58.334Z,56.20
2023-05-23T00:24:30.093Z,56.56
2023-05-23T00:27:01.990Z,56.52
2023-05-23T00:29:33.955Z,56.14
2023-05-23T00:32:05.866Z,56.22
2023-05-23T00:34:37.728Z,56.41
2023-05-23T00:37:09.452Z,56.85
2023-05-23T00:39:41.175Z,56.64
2023-05-23T00:42:12.967Z,56.60
2023-05-23T00:44:44.950Z,56.52
2023-05-23T00:47:16.684Z,56.96
2023-05-23T00:49:48.428Z,56.85
2023-05-23T00:52:20.153Z,56.68
2023-05-23T00:54:52.174Z,56.98
2023-05-23T00:57:24.103Z,56.95
2023-05-23T00:59:57.703Z,57.01
2023-05-23T01:02:32.550Z,57.13
2023-05-23T01:05:04.578Z,57.42
2023-05-23T01:07:36.527Z,57.66
2023-05-23T01:10:10.251Z,57.67
2023-05-23T01:12:51.068Z,57.71
2023-05-23T01:15:25.044Z,57.40
2023-05-23T01:18:04.028Z,57.44
2023-05-23T01:20:40.966Z,57.04
2023-05-23T01:23:31.116Z,57.19
2023-05-23T01:26:20.118Z,57.75
2023-05-23T01:28:56.758Z,57.40
2023-05-23T01:31:31.091Z,57.50
2023-05-23T01:34:03.573Z,57.47
2023-05-23T01:36:41.088Z,57.80
2023-05-23T01:39:13.080Z,57.66
2023-05-23T01:41:45.068Z,57.60
2023-05-23T01:44:18.635Z,57.48
2023-05-23T01:46:52.818Z,57.56
2023-05-23T01:49:25.555Z,57.69
2023-05-23T01:51:57.614Z,57.62
2023-05-23T01:54:30.378Z,57.46
2023-05-23T01:57:02.802Z,57.79
2023-05-23T01:59:34.817Z,58.25
2023-05-23T02:02:07.008Z,58.38
2023-05-23T02:04:39.251Z,58.10
2023-05-23T02:07:10.894Z,58.01
2023-05-23T02:09:43.218Z,58.47
2023-05-23T02:12:15.421Z,58.68
2023-05-23T02:14:47.113Z,58.64
2023-05-23T02:17:19.282Z,58.57
2023-05-23T02:19:51.124Z,58.79
2023-05-23T02:22:26.964Z,59.06
2023-05-23T02:24:59.031Z,59.60
2023-05-23T02:27:31.729Z,59.53
2023-05-23T02:30:01.938Z,59.69
2023-05-23T02:32:33.810Z,59.54
2023-05-23T02:35:06.659Z,59.29
2023-05-23T02:37:38.261Z,59.65
2023-05-23T02:40:12.203Z,59.56
2023-05-23T02:42:44.186Z,59.57
2023-05-23T02:45:15.936Z,60.06
2023-05-23T02:47:47.751Z,60.50
2023-05-23T02:50:19.634Z,61.08
2023-05-23T02:52:51.689Z,60.75
2023-05-23T02:55:23.761Z,60.44
2023-05-23T02:57:56.781Z,60.77
2023-05-23T03:00:30.654Z,61.01
2023-05-23T03:03:02.603Z,61.37
2023-05-23T03:05:34.779Z,61.14
2023-05-23T03:08:06.801Z,61.56
2023-05-23T03:10:39.060Z,61.57
2023-05-23T03:13:10.773Z,61.54
2023-05-23T03:15:42.649Z,61.68
2023-05-23T03:18:14.611Z,62.02
2023-05-23T03:20:46.279Z,62.39
2023-05-23T03:23:18.100Z,62.26
2023-05-23T03:25:50.088Z,62.66
2023-05-23T03:28:21.745Z,62.32
2023-05-23T03:30:53.460Z,62.87
2023-05-23T03:33:25.363Z,62.41
2023-05-23T03:35:58.162Z,62.21
2023-05-23T03:38:30.382Z,62.25
2023-05-23T03:41:02.157Z,63.04
2023-05-23T03:43:34.485Z,63.00
2023-05-23T03:46:06.495Z,62.63
2023-05-23T03:48:38.333Z,62.94
2023-05-23T03:51:10.427Z,63.00
2023-05-23T03:53:42.086Z,62.96
2023-05-23T03:56:14.799Z,63.00
2023-05-23T03:58:47.079Z,62.75
2023-05-23T04:01:19.555Z,62.54
2023-05-23T04:03:53.005Z,62.75
2023-05-23T04:06:25.365Z,63.01
2023-05-23T04:08:57.093Z,63.79
2023-05-23T04:11:30.203Z,63.78
2023-05-23T04:14:02.050Z,63.31
2023-05-23T04:16:36.300Z,63.29
2023-05-23T04:19:08.182Z,63.55
2023-05-23T04:21:40.406Z,62.95
2023-05-23T04:24:18.670Z,62.26
2023-05-23T04:26:50.609Z,62.43
2023-05-23T04:29:22.621Z,62.65
2023-05-23T04:31:54.986Z,63.22
2023-05-23T04:34:27.586Z,62.97
2023-05-23T04:37:01.860Z,62.59
2023-05-23T04:39:34.067Z,62.45
2023-05-23T04:42:29.297Z,62.38
2023-05-23T04:45:12.449Z,62.02
2023-05-23T04:48:22.882Z,61.92
2023-05-23T04:50:56.174Z,62.12
2023-05-23T04:53:27.989Z,62.64
2023-05-23T04:56:00.396Z,62.53
2023-05-23T04:58:33.698Z,62.28
2023-05-23T05:01:09.832Z,62.57
2023-05-23T05:03:40.732Z,62.66
2023-05-23T05:06:17.166Z,62.61
2023-05-23T05:08:48.915Z,62.71
2023-05-23T05:11:20.604Z,62.58
2023-05-23T05:13:52.310Z,62.27
2023-05-23T05:16:24.837Z,62.03
2023-05-23T05:18:57.246Z,62.52
2023-05-23T05:21:29.051Z,62.27
2023-05-23T05:24:01.691Z,62.02
2023-05-23T05:26:33.829Z,62.12
2023-05-23T05:29:06.069Z,61.92
2023-05-23T05:31:38.839Z,61.39
2023-05-23T05:34:11.028Z,61.09
2023-05-23T05:36:47.892Z,60.88
2023-05-23T05:39:21.574Z,60.42
2023-05-23T05:41:53.250Z,59.85
2023-05-23T05:44:25.014Z,59.84
2023-05-23T05:46:56.676Z,59.15
2023-05-23T05:49:28.357Z,58.54
2023-05-23T05:52:00.976Z,58.53
2023-05-23T05:54:32.668Z,59.02
2023-05-23T05:57:05.064Z,58.13
2023-05-23T05:59:37.740Z,57.63
2023-05-23T06:02:09.552Z,57.78
2023-05-23T06:04:41.291Z,57.12
2023-05-23T06:07:13.389Z,57.56
2023-05-23T06:09:45.635Z,57.45
2023-05-23T06:12:17.762Z,57.83
2023-05-23T06:14:49.518Z,57.41
2023-05-23T06:17:22.096Z,57.05
2023-05-23T06:19:54.118Z,57.41
2023-05-23T06:22:26.325Z,57.40
2023-05-23T06:24:58.353Z,57.23
2023-05-23T06:27:30.449Z,57.68
2023-05-23T06:30:02.761Z,57.61
2023-05-23T06:32:34.508Z,57.58
2023-05-23T06:35:07.369Z,57.05
2023-05-23T06:37:43.393Z,57.31
2023-05-23T06:40:15.749Z,56.89
2023-05-23T06:42:47.674Z,57.18
2023-05-23T06:45:39.266Z,57.47
2023-05-23T06:48:11.727Z,57.25
2023-05-23T06:50:44.135Z,56.94
2023-05-23T06:53:19.227Z,56.55
2023-05-23T06:55:51.594Z,55.99
2023-05-23T06:58:26.801Z,55.68
2023-05-23T07:01:00.029Z,55.94
2023-05-23T07:03:38.265Z,55.52
2023-05-23T07:06:11.046Z,54.31
2023-05-23T07:08:43.709Z,53.96
2023-05-23T07:11:15.550Z,54.20
2023-05-23T07:13:49.567Z,54.13
2023-05-23T07:16:28.127Z,53.12
2023-05-23T07:19:06.780Z,52.97
2023-05-23T07:21:41.436Z,53.88
2023-05-23T07:24:13.620Z,53.74
2023-05-23T07:26:45.710Z,53.35
2023-05-23T07:29:18.186Z,53.22
2023-05-23T07:31:51.989Z,53.43
2023-05-23T07:34:26.804Z,53.34
2023-05-23T07:37:01.222Z,52.96
2023-05-23T07:39:37.527Z,52.98
2023-05-23T07:42:10.690Z,53.17
2023-05-23T07:44:43.834Z,53.48
2023-05-23T07:47:13.939Z,52.38
2023-05-23T07:49:47.525Z,52.23
2023-05-23T07:52:19.271Z,52.59
2023-05-23T07:54:51.073Z,52.19
2023-05-23T07:57:24.504Z,51.89
2023-05-23T07:59:56.480Z,51.41
2023-05-23T08:02:29.029Z,51.23
2023-05-23T08:05:01.694Z,51.35
2023-05-23T08:07:34.347Z,51.21
2023-05-23T08:10:12.040Z,50.96
2023-05-23T08:12:43.927Z,51.10
2023-05-23T08:15:19.444Z,50.98
2023-05-23T08:17:57.341Z,50.23
2023-05-23T08:20:32.288Z,50.13
2023-05-23T08:23:04.847Z,50.28
2023-05-23T08:25:36.587Z,49.39
2023-05-23T08:28:08.351Z,49.73
2023-05-23T08:31:07.374Z,49.15
2023-05-23T08:33:39.634Z,48.53
2023-05-23T08:36:11.711Z,48.03
2023-05-23T08:38:44.488Z,47.56
2023-05-23T08:41:24.647Z,47.44
2023-05-23T08:44:01.120Z,47.03
2023-05-23T08:46:41.135Z,46.66
2023-05-23T08:49:15.064Z,46.47
2023-05-23T08:51:48.061Z,46.11
2023-05-23T08:54:24.529Z,44.64
2023-05-23T08:56:56.342Z,44.80
2023-05-23T08:59:28.961Z,45.13
2023-05-23T09:02:01.489Z,44.71
2023-05-23T09:04:33.873Z,43.90
2023-05-23T09:07:12.775Z,44.37
2023-05-23T09:09:45.272Z,44.72
2023-05-23T09:12:18.232Z,44.45
2023-05-23T09:14:53.076Z,44.34
2023-05-23T09:17:25.967Z,43.93
2023-05-23T09:19:58.131Z,43.40
2023-05-23T09:22:46.845Z,42.23
2023-05-23T09:25:19.615Z,41.15
2023-05-23T09:27:50.699Z,40.98
2023-05-23T09:30:23.098Z,40.94
2023-05-23T09:33:05.567Z,41.01
2023-05-23T09:35:47.135Z,40.95
2023-05-23T09:38:20.153Z,41.32
2023-05-23T09:40:57.936Z,41.07
2023-05-23T09:43:31.363Z,41.07
2023-05-23T09:46:10.634Z,41.00
2023-05-23T09:48:47.360Z,41.47
2023-05-23T09:51:22.112Z,40.97
2023-05-23T09:53:54.046Z,41.45
2023-05-23T09:56:28.746Z,41.18
2023-05-23T09:59:01.861Z,41.26
2023-05-23T10:01:35.413Z,41.63
2023-05-23T10:04:08.725Z,41.44
2023-05-23T10:06:46.572Z,41.95
2023-05-23T10:09:21.954Z,41.87
2023-05-23T10:12:38.013Z,41.13
2023-05-23T10:15:13.457Z,40.87
2023-05-23T10:18:10.681Z,40.46
2023-05-23T10:20:49.086Z,40.32
2023-05-23T10:23:22.315Z,40.44
2023-05-23T10:25:54.706Z,40.17
2023-05-23T10:28:27.215Z,40.29
2023-05-23T10:31:00.666Z,39.20
2023-05-23T10:33:41.652Z,38.86
2023-05-23T10:36:20.695Z,38.40
2023-05-23T10:39:00.930Z,38.81
2023-05-23T10:41:37.861Z,39.64
2023-05-23T10:44:17.924Z,38.81
2023-05-23T10:46:58.353Z,39.10
2023-05-23T10:49:42.427Z,39.02
2023-05-23T10:52:17.028Z,39.29
2023-05-23T10:54:51.313Z,39.26
2023-05-23T10:57:26.949Z,39.55
2023-05-23T10:59:58.724Z,39.38
2023-05-23T11:02:31.505Z,39.42
2023-05-23T11:05:22.148Z,39.04
2023-05-23T11:08:14.773Z,38.80
2023-05-23T11:10:57.775Z,38.21
2023-05-23T11:14:02.492Z,38.30
2023-05-23T11:16:41.461Z,39.13
2023-05-23T11:19:28.255Z,38.69
2023-05-23T11:22:06.005Z,38.36
2023-05-23T11:24:54.532Z,38.29
2023-05-23T11:27:35.741Z,38.52
2023-05-23T11:30:13.296Z,38.14
2023-05-23T11:32:51.546Z,38.76
2023-05-23T11:35:24.135Z,38.94
2023-05-23T11:37:57.913Z,38.02
2023-05-23T11:40:32.365Z,37.81
2023-05-23T11:43:06.126Z,39.64
2023-05-23T11:45:40.133Z,43.41
2023-05-23T11:48:13.625Z,45.14
2023-05-23T11:50:50.556Z,46.99
2023-05-23T11:53:25.672Z,48.71
2023-05-23T11:56:00.242Z,52.01
2023-05-23T11:58:34.921Z,53.98
2023-05-23T12:01:08.656Z,56.53
2023-05-23T12:03:49.429Z,57.93
2023-05-23T12:06:24.698Z,59.98
2023-05-23T12:08:56.592Z,60.81
2023-05-23T12:11:32.185Z,61.51
2023-05-23T12:14:06.451Z,61.66
2023-05-23T12:16:39.134Z,62.41
2023-05-23T12:19:11.590Z,62.42
2023-05-23T12:21:47.978Z,63.13
2023-05-23T12:24:21.435Z,64.26
2023-05-23T12:26:55.203Z,63.84
2023-05-23T12:29:34.983Z,64.65
2023-05-23T12:32:08.953Z,64.86
2023-05-23T12:34:44.859Z,65.13
2023-05-23T12:37:20.469Z,66.13
2023-05-23T12:39:52.796Z,66.58
2023-05-23T12:42:24.459Z,67.66
2023-05-23T12:44:56.492Z,68.36
2023-05-23T12:47:28.308Z,68.97
2023-05-23T12:50:00.466Z,70.56
2023-05-23T12:52:32.436Z,73.13
2023-05-23T12:55:05.738Z,72.09
2023-05-23T12:57:38.354Z,74.58
2023-05-23T13:00:09.829Z,75.42
2023-05-23T13:02:41.956Z,75.67
2023-05-23T13:05:14.016Z,76.56
2023-05-23T13:07:45.774Z,77.07
2023-05-23T13:10:17.656Z,78.05
2023-05-23T13:12:49.265Z,79.20
2023-05-23T13:15:21.136Z,79.89
2023-05-23T13:17:53.042Z,80.01
2023-05-23T13:20:25.078Z,81.05
2023-05-23T13:22:57.608Z,80.65
2023-05-23T13:25:30.044Z,80.66
2023-05-23T13:28:02.387Z,82.09
2023-05-23T13:30:34.257Z,82.98
2023-05-23T13:33:06.484Z,84.16
2023-05-23T13:35:38.531Z,85.54
2023-05-23T13:38:10.604Z,84.74
2023-05-23T13:40:42.648Z,85.85
2023-05-23T13:43:15.661Z,86.69
2023-05-23T13:45:47.346Z,86.95
2023-05-23T13:48:19.175Z,87.94
2023-05-23T13:50:50.902Z,87.74
2023-05-23T13:53:23.554Z,87.40
2023-05-23T13:55:55.945Z,87.56
2023-05-23T13:58:29.220Z,88.26
2023-05-23T14:01:02.634Z,87.63
2023-05-23T14:03:37.078Z,89.74
2023-05-23T14:06:09.317Z,89.95
2023-05-23T14:08:41.212Z,88.75
2023-05-23T14:11:12.876Z,88.25
2023-05-23T14:13:44.727Z,87.50
2023-05-23T14:16:17.191Z,87.46
2023-05-23T14:18:49.610Z,88.25
2023-05-23T14:21:21.941Z,87.19
2023-05-23T14:23:53.629Z,86.79
2023-05-23T14:26:25.998Z,86.68
2023-05-23T14:28:57.964Z,84.82
2023-05-23T14:31:30.305Z,83.15
2023-05-23T14:34:02.500Z,82.67
2023-05-23T14:36:36.603Z,84.94
2023-05-23T14:39:10.622Z,81.94
2023-05-23T14:41:43.363Z,80.76
2023-05-23T14:44:15.283Z,80.29
2023-05-23T14:46:49.743Z,80.23
2023-05-23T14:49:21.591Z,79.41
2023-05-23T14:51:53.212Z,78.31
2023-05-23T14:54:24.982Z,76.88
2023-05-23T14:56:56.896Z,76.90
2023-05-23T14:59:29.238Z,79.91
2023-05-23T15:02:01.144Z,78.06
2023-05-23T15:04:33.264Z,77.03
2023-05-23T15:07:05.456Z,79.88
2023-05-23T15:09:37.606Z,79.66
2023-05-23T15:12:09.864Z,77.22
2023-05-23T15:14:41.840Z,77.16
2023-05-23T15:17:19.769Z,78.20
2023-05-23T15:19:51.705Z,79.09
2023-05-23T15:25:02.357Z,80.79
2023-05-23T15:27:34.073Z,80.63
2023-05-23T15:30:07.913Z,79.42
2023-05-23T15:32:39.969Z,79.66
2023-05-23T15:35:12.468Z,80.16
2023-05-23T15:37:47.357Z,80.46
2023-05-23T15:40:19.314Z,80.69
2023-05-23T15:42:51.371Z,81.61
2023-05-23T15:45:23.453Z,81.68
2023-05-23T15:47:55.189Z,82.13
2023-05-23T15:50:27.025Z,83.78
2023-05-23T15:52:58.883Z,84.91
2023-05-23T15:55:30.648Z,85.37
2023-05-23T15:58:02.952Z,85.59
2023-05-23T16:00:34.801Z,87.18
2023-05-23T16:03:06.881Z,87.23
2023-05-23T16:05:38.947Z,87.36
2023-05-23T16:08:11.596Z,86.92
2023-05-23T16:10:43.407Z,86.97
2023-05-23T16:13:17.291Z,87.40
2023-05-23T16:15:50.026Z,88.10
2023-05-23T16:18:23.457Z,89.51
2023-05-23T16:20:57.194Z,88.80
2023-05-23T16:23:29.079Z,89.11
2023-05-23T16:26:01.481Z,89.91
2023-05-23T16:28:33.388Z,88.14
2023-05-23T16:31:05.553Z,87.21
2023-05-23T16:33:37.693Z,86.96
2023-05-23T16:36:10.256Z,86.86
2023-05-23T16:38:41.932Z,85.49
2023-05-23T16:41:13.976Z,84.44
2023-05-23T16:43:46.332Z,84.91
2023-05-23T16:46:20.583Z,84.09
2023-05-23T16:48:52.700Z,84.01
2023-05-23T16:51:24.876Z,84.38
2023-05-23T16:53:56.735Z,84.40
2023-05-23T16:56:28.857Z,84.30
2023-05-23T16:59:01.135Z,84.52
2023-05-23T17:01:33.437Z,84.70
2023-05-23T17:04:06.315Z,83.97
2023-05-23T17:06:38.662Z,84.94
2023-05-23T17:09:10.472Z,86.01
2023-05-23T17:11:42.315Z,85.87
2023-05-23T17:14:14.414Z,86.22
2023-05-23T17:16:46.419Z,86.50
2023-05-23T17:19:18.414Z,85.92
2023-05-23T17:21:50.673Z,86.07
2023-05-23T17:24:22.969Z,84.40
2023-05-23T17:26:55.208Z,83.80
2023-05-23T17:29:27.417Z,85.23
2023-05-23T17:31:59.227Z,85.94
2023-05-23T17:34:31.673Z,85.90
2023-05-23T17:37:03.891Z,85.36
2023-05-23T17:39:35.965Z,84.52
2023-05-23T17:42:08.417Z,83.90
2023-05-23T17:44:39.166Z,83.83
2023-05-23T17:47:11.400Z,84.70
2023-05-23T17:49:43.434Z,85.75
2023-05-23T17:52:15.859Z,87.36
2023-05-23T17:54:47.747Z,88.21
2023-05-23T17:57:20.247Z,87.50
2023-05-23T17:59:52.336Z,86.70
2023-05-23T18:02:24.411Z,87.33
2023-05-23T18:04:57.335Z,86.68
2023-05-23T18:07:29.233Z,86.14
2023-05-23T18:10:01.595Z,87.45
2023-05-23T18:12:33.538Z,88.01
2023-05-23T18:15:07.504Z,87.14
2023-05-23T18:17:41.732Z,87.20
2023-05-23T18:20:18.271Z,86.85
2023-05-23T18:22:55.742Z,86.81
2023-05-23T18:25:28.958Z,87.93
2023-05-23T18:28:02.546Z,87.68
2023-05-23T18:30:34.439Z,87.32
2023-05-23T18:33:07.438Z,87.02
2023-05-23T18:35:39.692Z,87.52
2023-05-23T18:38:16.454Z,88.51
2023-05-23T18:40:47.090Z,88.16
2023-05-23T18:43:20.261Z,88.23
2023-05-23T18:45:52.385Z,88.31
2023-05-23T18:48:24.379Z,87.93
2023-05-23T18:50:56.569Z,88.09
2023-05-23T18:53:28.549Z,88.78
2023-05-23T18:56:01.483Z,89.46
2023-05-23T18:58:33.704Z,89.59
2023-05-23T19:01:07.185Z,90.72
2023-05-23T19:03:38.277Z,91.26
2023-05-23T19:06:10.581Z,92.29
2023-05-23T19:08:44.214Z,92.55
2023-05-23T19:11:16.725Z,92.89
2023-05-23T19:13:51.221Z,93.97
2023-05-23T19:16:24.075Z,94.73
2023-05-23T19:18:56.288Z,94.48
2023-05-23T19:21:29.485Z,95.05
2023-05-23T19:24:04.205Z,95.02
2023-05-23T19:26:36.481Z,94.62
2023-05-23T19:29:08.652Z,94.42
2023-05-23T19:31:42.188Z,94.48
2023-05-23T19:34:14.516Z,94.28
2023-05-23T19:36:46.943Z,94.99
2023-05-23T19:39:21.536Z,95.11
2023-05-23T19:41:53.803Z,95.91
2023-05-23T19:44:25.871Z,96.05
2023-05-23T19:46:57.994Z,96.38
2023-05-23T19:49:30.579Z,96.49
2023-05-23T19:52:02.428Z,96.54
2023-05-23T19:54:34.851Z,96.61
2023-05-23T19:57:07.673Z,97.03
2023-05-23T19:59:40.867Z,96.54
2023-05-23T20:02:13.611Z,96.29
2023-05-23T20:04:47.347Z,95.63
2023-05-23T20:07:20.129Z,95.33
2023-05-23T20:09:52.461Z,95.64
2023-05-23T20:12:24.361Z,95.48
2023-05-23T20:14:57.521Z,96.83
2023-05-23T20:17:30.773Z,96.89
2023-05-23T20:20:04.168Z,97.05
2023-05-23T20:22:35.901Z,98.08
2023-05-23T20:25:10.197Z,97.83
2023-05-23T20:27:41.896Z,97.16
2023-05-23T20:30:15.665Z,97.05
2023-05-23T20:32:48.486Z,96.87
2023-05-23T20:35:20.536Z,96.98
2023-05-23T20:37:53.539Z,97.89
2023-05-23T20:40:25.690Z,98.19
2023-05-23T20:43:00.713Z,98.43
2023-05-23T20:45:32.547Z,99.28
2023-05-23T20:48:04.586Z,99.34
2023-05-23T20:50:37.961Z,99.74
2023-05-23T20:53:09.723Z,99.99
2023-05-23T20:55:42.477Z,100.00
2023-05-23T20:58:14.515Z,99.88
2023-05-23T21:00:46.433Z,98.55
2023-05-23T21:03:18.607Z,98.69
2023-05-23T21:05:50.978Z,99.69
2023-05-23T21:08:22.842Z,99.79
2023-05-23T21:10:55.033Z,99.92
2023-05-23T21:13:27.274Z,99.78
2023-05-23T21:15:58.932Z,99.71
2023-05-23T21:18:30.876Z,99.51
2023-05-23T21:21:02.572Z,99.62
2023-05-23T21:23:34.359Z,99.58
2023-05-23T21:26:06.130Z,99.58
2023-05-23T21:28:37.886Z,98.87
2023-05-23T21:31:09.950Z,99.81
2023-05-23T21:33:42.054Z,99.87
2023-05-23T21:36:13.694Z,99.13
2023-05-23T21:38:45.446Z,99.19
2023-05-23T21:41:17.181Z,99.36
2023-05-23T21:43:48.954Z,99.29
2023-05-23T21:46:21.728Z,99.50
2023-05-23T21:48:51.869Z,99.81
2023-05-23T21:51:23.582Z,99.99
2023-05-23T21:53:55.373Z,100.00
2023-05-23T21:56:27.992Z,100.00
2023-05-23T21:58:58.106Z,100.00
2023-05-23T22:01:30.196Z,100.00
2023-05-23T22:04:02.172Z,100.00
2023-05-23T22:06:34.282Z,100.00
2023-05-23T22:09:10.199Z,100.00
2023-05-23T22:11:42.466Z,100.00
2023-05-23T22:14:13.059Z,100.00
2023-05-23T22:16:45.180Z,100.00
2023-05-23T22:19:18.103Z,100.00
2023-05-23T22:21:50.200Z,100.00
2023-05-23T22:24:22.318Z,100.00
2023-05-23T22:26:54.032Z,100.00
2023-05-23T22:29:26.047Z,100.00
2023-05-23T22:31:57.911Z,100.00
2023-05-23T22:34:29.907Z,100.00
2023-05-23T22:37:02.385Z,100.00
2023-05-23T22:39:34.211Z,100.00
2023-05-23T22:42:06.708Z,100.00
2023-05-23T22:44:38.835Z,100.00
2023-05-23T22:47:13.780Z,100.00
2023-05-23T22:49:46.125Z,100.00
2023-05-23T22:52:18.385Z,100.00
2023-05-23T22:54:50.281Z,100.00
2023-05-23T22:57:22.419Z,100.00
2023-05-23T22:59:54.247Z,100.00
2023-05-23T23:02:25.999Z,100.00
2023-05-23T23:04:57.911Z,100.00
2023-05-23T23:07:30.228Z,100.00
2023-05-23T23:10:02.422Z,100.00
2023-05-23T23:12:34.354Z,100.00
2023-05-23T23:15:07.566Z,100.00
2023-05-23T23:17:39.588Z,100.00
2023-05-23T23:20:13.284Z,100.00
2023-05-23T23:22:45.681Z,100.00
2023-05-23T23:25:18.750Z,100.00
2023-05-23T23:27:50.896Z,100.00
2023-05-23T23:30:23.172Z,100.00
2023-05-23T23:32:55.180Z,100.00
2023-05-23T23:35:27.071Z,100.00
2023-05-23T23:37:58.811Z,100.00
2023-05-23T23:40:30.600Z,100.00
2023-05-23T23:43:02.877Z,100.00
2023-05-23T23:45:34.582Z,100.00
2023-05-23T23:48:07.560Z,100.00
2023-05-23T23:50:39.542Z,100.00
2023-05-23T23:53:12.509Z,100.00
2023-05-23T23:55:44.236Z,100.00
2023-05-23T23:58:15.993Z,100.00
